sensor_id;sensor_type;location;lat;lon;timestamp;temperature;humidity
4433;DHT22;2229;48.708;9.706;2023-04-01T00:00:11;9.60;93.10
4433;DHT22;2229;48.708;9.706;2023-04-01T00:02:39;9.60;93.20
4433;DHT22;2229;48.708;9.706;2023-04-01T00:05:08;9.60;93.10
4433;DHT22;2229;48.708;9.706;2023-04-01T00:07:36;9.60;93.20
4433;DHT22;2229;48.708;9.706;2023-04-01T00:10:03;9.60;93.20
4433;DHT22;2229;48.708;9.706;2023-04-01T00:12:31;9.60;93.30
4433;DHT22;2229;48.708;9.706;2023-04-01T00:14:58;9.60;93.30
4433;DHT22;2229;48.708;9.706;2023-04-01T00:17:25;9.60;93.30
4433;DHT22;2229;48.708;9.706;2023-04-01T00:19:54;9.60;93.40
4433;DHT22;2229;48.708;9.706;2023-04-01T00:22:26;9.60;93.40
4433;DHT22;2229;48.708;9.706;2023-04-01T00:24:54;9.60;93.50
4433;DHT22;2229;48.708;9.706;2023-04-01T00:27:21;9.60;93.60
4433;DHT22;2229;48.708;9.706;2023-04-01T00:29:48;9.60;93.50
4433;DHT22;2229;48.708;9.706;2023-04-01T00:32:15;9.50;93.30
4433;DHT22;2229;48.708;9.706;2023-04-01T00:34:43;9.60;93.30
4433;DHT22;2229;48.708;9.706;2023-04-01T00:37:12;9.50;93.30
4433;DHT22;2229;48.708;9.706;2023-04-01T00:39:41;9.60;93.30
4433;DHT22;2229;48.708;9.706;2023-04-01T00:42:10;9.60;93.20
4433;DHT22;2229;48.708;9.706;2023-04-01T00:44:38;9.60;93.10
4433;DHT22;2229;48.708;9.706;2023-04-01T00:47:06;9.60;92.90
4433;DHT22;2229;48.708;9.706;2023-04-01T00:49:36;9.60;92.70
4433;DHT22;2229;48.708;9.706;2023-04-01T00:52:05;9.50;92.40
4433;DHT22;2229;48.708;9.706;2023-04-01T00:54:34;9.50;92.50
4433;DHT22;2229;48.708;9.706;2023-04-01T00:57:08;9.50;92.50
4433;DHT22;2229;48.708;9.706;2023-04-01T00:59:40;9.40;92.40
4433;DHT22;2229;48.708;9.706;2023-04-01T01:02:11;9.40;92.40
4433;DHT22;2229;48.708;9.706;2023-04-01T01:04:39;9.40;92.50
4433;DHT22;2229;48.708;9.706;2023-04-01T01:07:15;9.40;92.60
4433;DHT22;2229;48.708;9.706;2023-04-01T01:09:53;9.40;92.60
4433;DHT22;2229;48.708;9.706;2023-04-01T01:12:27;9.40;92.60
4433;DHT22;2229;48.708;9.706;2023-04-01T01:15:02;9.50;92.70
4433;DHT22;2229;48.708;9.706;2023-04-01T01:17:38;9.50;92.80
4433;DHT22;2229;48.708;9.706;2023-04-01T01:20:42;9.50;92.80
4433;DHT22;2229;48.708;9.706;2023-04-01T01:23:32;9.50;92.90
4433;DHT22;2229;48.708;9.706;2023-04-01T01:29:04;9.50;92.90
4433;DHT22;2229;48.708;9.706;2023-04-01T01:31:37;9.50;92.90
4433;DHT22;2229;48.708;9.706;2023-04-01T01:34:14;9.50;93.00
4433;DHT22;2229;48.708;9.706;2023-04-01T01:36:45;9.40;93.10
4433;DHT22;2229;48.708;9.706;2023-04-01T01:39:16;9.40;93.60
4433;DHT22;2229;48.708;9.706;2023-04-01T01:41:46;9.40;93.70
4433;DHT22;2229;48.708;9.706;2023-04-01T01:44:16;9.40;93.70
4433;DHT22;2229;48.708;9.706;2023-04-01T01:46:45;9.30;93.80
4433;DHT22;2229;48.708;9.706;2023-04-01T01:49:15;9.30;93.90
4433;DHT22;2229;48.708;9.706;2023-04-01T01:51:47;9.20;93.90
4433;DHT22;2229;48.708;9.706;2023-04-01T01:54:16;9.20;94.00
4433;DHT22;2229;48.708;9.706;2023-04-01T01:56:50;9.20;94.20
4433;DHT22;2229;48.708;9.706;2023-04-01T01:59:21;9.20;94.30
4433;DHT22;2229;48.708;9.706;2023-04-01T02:01:51;9.20;94.30
4433;DHT22;2229;48.708;9.706;2023-04-01T02:04:19;9.10;94.20
4433;DHT22;2229;48.708;9.706;2023-04-01T02:06:52;9.10;94.30
4433;DHT22;2229;48.708;9.706;2023-04-01T02:09:20;9.10;94.40
4433;DHT22;2229;48.708;9.706;2023-04-01T02:11:50;9.10;94.50
4433;DHT22;2229;48.708;9.706;2023-04-01T02:14:21;9.00;94.60
4433;DHT22;2229;48.708;9.706;2023-04-01T02:16:53;9.10;94.70
4433;DHT22;2229;48.708;9.706;2023-04-01T02:19:26;9.10;94.70
4433;DHT22;2229;48.708;9.706;2023-04-01T02:22:00;9.00;94.60
4433;DHT22;2229;48.708;9.706;2023-04-01T02:24:31;9.00;94.40
4433;DHT22;2229;48.708;9.706;2023-04-01T02:26:58;9.00;94.40
4433;DHT22;2229;48.708;9.706;2023-04-01T02:29:27;8.90;94.30
4433;DHT22;2229;48.708;9.706;2023-04-01T02:31:55;8.80;94.40
4433;DHT22;2229;48.708;9.706;2023-04-01T02:34:24;8.80;94.40
4433;DHT22;2229;48.708;9.706;2023-04-01T02:36:52;8.80;94.40
4433;DHT22;2229;48.708;9.706;2023-04-01T02:39:21;8.80;94.50
4433;DHT22;2229;48.708;9.706;2023-04-01T02:41:51;8.80;94.50
4433;DHT22;2229;48.708;9.706;2023-04-01T02:44:19;8.80;94.60
4433;DHT22;2229;48.708;9.706;2023-04-01T02:46:46;8.80;94.70
4433;DHT22;2229;48.708;9.706;2023-04-01T02:49:14;8.80;94.60
4433;DHT22;2229;48.708;9.706;2023-04-01T02:51:41;8.80;94.60
4433;DHT22;2229;48.708;9.706;2023-04-01T02:54:09;8.70;94.60
4433;DHT22;2229;48.708;9.706;2023-04-01T02:56:38;8.70;94.70
4433;DHT22;2229;48.708;9.706;2023-04-01T02:59:05;8.70;95.10
4433;DHT22;2229;48.708;9.706;2023-04-01T03:01:32;8.70;94.80
4433;DHT22;2229;48.708;9.706;2023-04-01T03:03:59;8.70;94.60
4433;DHT22;2229;48.708;9.706;2023-04-01T03:06:27;8.70;94.70
4433;DHT22;2229;48.708;9.706;2023-04-01T03:08:54;8.70;94.70
4433;DHT22;2229;48.708;9.706;2023-04-01T03:11:21;8.70;94.60
4433;DHT22;2229;48.708;9.706;2023-04-01T03:13:50;8.70;94.40
4433;DHT22;2229;48.708;9.706;2023-04-01T03:16:17;8.70;94.30
4433;DHT22;2229;48.708;9.706;2023-04-01T03:18:45;8.60;94.20
4433;DHT22;2229;48.708;9.706;2023-04-01T03:21:16;8.60;94.30
4433;DHT22;2229;48.708;9.706;2023-04-01T03:23:45;8.50;94.30
4433;DHT22;2229;48.708;9.706;2023-04-01T03:26:13;8.50;94.30
4433;DHT22;2229;48.708;9.706;2023-04-01T03:28:40;8.40;94.30
4433;DHT22;2229;48.708;9.706;2023-04-01T03:31:10;8.40;94.40
4433;DHT22;2229;48.708;9.706;2023-04-01T03:33:43;8.30;94.80
4433;DHT22;2229;48.708;9.706;2023-04-01T03:36:11;8.40;94.60
4433;DHT22;2229;48.708;9.706;2023-04-01T03:38:39;8.40;94.60
4433;DHT22;2229;48.708;9.706;2023-04-01T03:41:06;8.40;94.60
4433;DHT22;2229;48.708;9.706;2023-04-01T03:43:33;8.30;94.60
4433;DHT22;2229;48.708;9.706;2023-04-01T03:46:00;8.40;94.50
4433;DHT22;2229;48.708;9.706;2023-04-01T03:48:31;8.40;94.50
4433;DHT22;2229;48.708;9.706;2023-04-01T03:51:00;8.40;94.30
4433;DHT22;2229;48.708;9.706;2023-04-01T03:53:28;8.40;94.20
4433;DHT22;2229;48.708;9.706;2023-04-01T03:55:58;8.40;94.10
4433;DHT22;2229;48.708;9.706;2023-04-01T03:58:26;8.30;94.00
4433;DHT22;2229;48.708;9.706;2023-04-01T04:00:54;8.30;94.10
4433;DHT22;2229;48.708;9.706;2023-04-01T04:03:21;8.30;94.10
4433;DHT22;2229;48.708;9.706;2023-04-01T04:05:51;8.40;94.10
4433;DHT22;2229;48.708;9.706;2023-04-01T04:08:18;8.40;94.10
4433;DHT22;2229;48.708;9.706;2023-04-01T04:10:51;8.40;94.00
4433;DHT22;2229;48.708;9.706;2023-04-01T04:13:21;8.40;94.00
4433;DHT22;2229;48.708;9.706;2023-04-01T04:15:56;8.40;94.00
4433;DHT22;2229;48.708;9.706;2023-04-01T04:18:23;8.40;94.00
4433;DHT22;2229;48.708;9.706;2023-04-01T04:20:52;8.40;94.00
4433;DHT22;2229;48.708;9.706;2023-04-01T04:23:20;8.40;94.00
4433;DHT22;2229;48.708;9.706;2023-04-01T04:25:55;8.40;93.90
4433;DHT22;2229;48.708;9.706;2023-04-01T04:28:23;8.40;94.00
4433;DHT22;2229;48.708;9.706;2023-04-01T04:30:52;8.40;94.00
4433;DHT22;2229;48.708;9.706;2023-04-01T04:33:20;8.40;93.90
4433;DHT22;2229;48.708;9.706;2023-04-01T04:35:49;8.30;93.80
4433;DHT22;2229;48.708;9.706;2023-04-01T04:38:18;8.30;93.80
4433;DHT22;2229;48.708;9.706;2023-04-01T04:40:46;8.30;93.80
4433;DHT22;2229;48.708;9.706;2023-04-01T04:43:15;8.20;93.80
4433;DHT22;2229;48.708;9.706;2023-04-01T04:45:42;8.20;93.80
4433;DHT22;2229;48.708;9.706;2023-04-01T04:48:12;8.20;94.30
4433;DHT22;2229;48.708;9.706;2023-04-01T04:50:42;8.30;95.20
4433;DHT22;2229;48.708;9.706;2023-04-01T04:53:13;8.60;95.40
4433;DHT22;2229;48.708;9.706;2023-04-01T04:55:44;8.70;94.50
4433;DHT22;2229;48.708;9.706;2023-04-01T04:58:39;8.70;93.90
4433;DHT22;2229;48.708;9.706;2023-04-01T05:01:10;8.70;93.50
4433;DHT22;2229;48.708;9.706;2023-04-01T05:03:39;8.60;93.40
4433;DHT22;2229;48.708;9.706;2023-04-01T05:06:08;8.60;93.40
4433;DHT22;2229;48.708;9.706;2023-04-01T05:08:36;8.60;93.50
4433;DHT22;2229;48.708;9.706;2023-04-01T05:11:07;8.50;93.50
4433;DHT22;2229;48.708;9.706;2023-04-01T05:13:36;8.60;93.50
4433;DHT22;2229;48.708;9.706;2023-04-01T05:16:29;8.50;93.40
4433;DHT22;2229;48.708;9.706;2023-04-01T05:18:58;8.50;93.50
4433;DHT22;2229;48.708;9.706;2023-04-01T05:21:25;8.60;93.60
4433;DHT22;2229;48.708;9.706;2023-04-01T05:23:54;8.50;93.60
4433;DHT22;2229;48.708;9.706;2023-04-01T05:26:26;8.60;93.60
4433;DHT22;2229;48.708;9.706;2023-04-01T05:28:53;8.60;93.60
4433;DHT22;2229;48.708;9.706;2023-04-01T05:31:21;8.70;93.50
4433;DHT22;2229;48.708;9.706;2023-04-01T05:33:50;8.70;93.30
4433;DHT22;2229;48.708;9.706;2023-04-01T05:36:17;8.80;93.40
4433;DHT22;2229;48.708;9.706;2023-04-01T05:38:47;8.80;93.40
4433;DHT22;2229;48.708;9.706;2023-04-01T05:41:17;8.90;93.30
4433;DHT22;2229;48.708;9.706;2023-04-01T05:43:48;8.90;93.20
4433;DHT22;2229;48.708;9.706;2023-04-01T05:46:45;8.90;93.20
4433;DHT22;2229;48.708;9.706;2023-04-01T05:49:24;9.00;93.10
4433;DHT22;2229;48.708;9.706;2023-04-01T05:51:52;9.00;92.90
4433;DHT22;2229;48.708;9.706;2023-04-01T05:54:19;9.00;92.90
4433;DHT22;2229;48.708;9.706;2023-04-01T05:56:47;9.00;92.60
4433;DHT22;2229;48.708;9.706;2023-04-01T05:59:16;9.00;92.60
4433;DHT22;2229;48.708;9.706;2023-04-01T06:01:44;9.00;92.40
4433;DHT22;2229;48.708;9.706;2023-04-01T06:04:14;9.10;92.40
4433;DHT22;2229;48.708;9.706;2023-04-01T06:06:43;9.10;92.40
4433;DHT22;2229;48.708;9.706;2023-04-01T06:09:15;9.10;92.30
4433;DHT22;2229;48.708;9.706;2023-04-01T06:12:08;9.10;92.10
4433;DHT22;2229;48.708;9.706;2023-04-01T06:15:10;9.20;92.30
4433;DHT22;2229;48.708;9.706;2023-04-01T06:17:58;9.20;92.40
4433;DHT22;2229;48.708;9.706;2023-04-01T06:20:37;9.30;92.30
4433;DHT22;2229;48.708;9.706;2023-04-01T06:23:30;9.30;92.20
4433;DHT22;2229;48.708;9.706;2023-04-01T06:26:08;9.40;91.80
4433;DHT22;2229;48.708;9.706;2023-04-01T06:29:03;9.40;91.80
4433;DHT22;2229;48.708;9.706;2023-04-01T06:31:54;9.50;91.60
4433;DHT22;2229;48.708;9.706;2023-04-01T06:34:40;9.50;91.40
4433;DHT22;2229;48.708;9.706;2023-04-01T06:37:37;9.50;91.10
4433;DHT22;2229;48.708;9.706;2023-04-01T06:40:28;9.50;91.10
4433;DHT22;2229;48.708;9.706;2023-04-01T06:43:07;9.50;91.10
4433;DHT22;2229;48.708;9.706;2023-04-01T06:46:24;9.60;91.30
4433;DHT22;2229;48.708;9.706;2023-04-01T06:49:37;9.60;90.90
4433;DHT22;2229;48.708;9.706;2023-04-01T06:52:31;9.60;91.10
4433;DHT22;2229;48.708;9.706;2023-04-01T06:55:27;9.70;91.10
4433;DHT22;2229;48.708;9.706;2023-04-01T06:58:20;9.70;91.00
4433;DHT22;2229;48.708;9.706;2023-04-01T07:00:51;9.70;91.10
4433;DHT22;2229;48.708;9.706;2023-04-01T07:03:22;9.80;91.30
4433;DHT22;2229;48.708;9.706;2023-04-01T07:06:00;9.80;91.10
4433;DHT22;2229;48.708;9.706;2023-04-01T07:08:29;9.80;90.90
4433;DHT22;2229;48.708;9.706;2023-04-01T07:11:02;9.90;90.90
4433;DHT22;2229;48.708;9.706;2023-04-01T07:13:36;10.00;90.50
4433;DHT22;2229;48.708;9.706;2023-04-01T07:16:18;10.00;90.30
4433;DHT22;2229;48.708;9.706;2023-04-01T07:18:49;10.00;90.20
4433;DHT22;2229;48.708;9.706;2023-04-01T07:21:40;10.10;90.30
4433;DHT22;2229;48.708;9.706;2023-04-01T07:24:22;10.10;90.10
4433;DHT22;2229;48.708;9.706;2023-04-01T07:27:01;10.10;90.00
4433;DHT22;2229;48.708;9.706;2023-04-01T07:29:32;10.10;90.00
4433;DHT22;2229;48.708;9.706;2023-04-01T07:32:10;10.10;89.90
4433;DHT22;2229;48.708;9.706;2023-04-01T07:34:50;10.10;88.90
4433;DHT22;2229;48.708;9.706;2023-04-01T07:37:24;10.10;89.10
4433;DHT22;2229;48.708;9.706;2023-04-01T07:40:03;10.20;89.60
4433;DHT22;2229;48.708;9.706;2023-04-01T07:42:47;10.20;89.80
4433;DHT22;2229;48.708;9.706;2023-04-01T07:45:24;10.20;90.00
4433;DHT22;2229;48.708;9.706;2023-04-01T07:48:09;10.20;89.80
4433;DHT22;2229;48.708;9.706;2023-04-01T07:50:44;10.30;89.80
4433;DHT22;2229;48.708;9.706;2023-04-01T07:53:19;10.30;89.10
4433;DHT22;2229;48.708;9.706;2023-04-01T07:55:58;10.30;90.10
4433;DHT22;2229;48.708;9.706;2023-04-01T07:58:34;10.50;91.20
4433;DHT22;2229;48.708;9.706;2023-04-01T08:01:14;10.80;91.00
4433;DHT22;2229;48.708;9.706;2023-04-01T08:04:03;10.90;89.50
4433;DHT22;2229;48.708;9.706;2023-04-01T08:06:36;10.80;88.20
4433;DHT22;2229;48.708;9.706;2023-04-01T08:09:14;10.80;88.60
4433;DHT22;2229;48.708;9.706;2023-04-01T08:12:25;10.60;87.50
4433;DHT22;2229;48.708;9.706;2023-04-01T08:15:10;10.50;87.20
4433;DHT22;2229;48.708;9.706;2023-04-01T08:17:58;10.50;88.00
4433;DHT22;2229;48.708;9.706;2023-04-01T08:20:34;10.50;87.50
4433;DHT22;2229;48.708;9.706;2023-04-01T08:23:09;10.50;88.20
4433;DHT22;2229;48.708;9.706;2023-04-01T08:25:46;10.50;88.20
4433;DHT22;2229;48.708;9.706;2023-04-01T08:28:20;10.40;88.20
4433;DHT22;2229;48.708;9.706;2023-04-01T08:30:53;10.40;87.90
4433;DHT22;2229;48.708;9.706;2023-04-01T08:33:24;10.40;88.00
4433;DHT22;2229;48.708;9.706;2023-04-01T08:36:05;10.40;87.60
4433;DHT22;2229;48.708;9.706;2023-04-01T08:38:38;10.40;87.50
4433;DHT22;2229;48.708;9.706;2023-04-01T08:41:32;10.40;88.10
4433;DHT22;2229;48.708;9.706;2023-04-01T08:45:10;10.40;88.10
4433;DHT22;2229;48.708;9.706;2023-04-01T08:48:22;10.40;88.30
4433;DHT22;2229;48.708;9.706;2023-04-01T08:54:39;10.30;88.00
4433;DHT22;2229;48.708;9.706;2023-04-01T08:57:21;10.30;88.20
4433;DHT22;2229;48.708;9.706;2023-04-01T09:00:31;10.30;88.40
4433;DHT22;2229;48.708;9.706;2023-04-01T09:06:37;10.30;89.40
4433;DHT22;2229;48.708;9.706;2023-04-01T09:13:03;10.30;89.40
4433;DHT22;2229;48.708;9.706;2023-04-01T09:15:56;10.40;89.60
4433;DHT22;2229;48.708;9.706;2023-04-01T09:21:37;10.40;90.10
4433;DHT22;2229;48.708;9.706;2023-04-01T09:24:36;10.40;90.40
4433;DHT22;2229;48.708;9.706;2023-04-01T09:27:13;10.40;91.10
4433;DHT22;2229;48.708;9.706;2023-04-01T09:35:47;10.20;93.10
4433;DHT22;2229;48.708;9.706;2023-04-01T09:38:28;10.10;93.60
4433;DHT22;2229;48.708;9.706;2023-04-01T09:41:07;10.00;93.90
4433;DHT22;2229;48.708;9.706;2023-04-01T09:44:00;9.90;94.60
4433;DHT22;2229;48.708;9.706;2023-04-01T09:46:49;9.80;94.90
4433;DHT22;2229;48.708;9.706;2023-04-01T09:52:36;9.70;95.30
4433;DHT22;2229;48.708;9.706;2023-04-01T09:55:50;9.70;95.70
4433;DHT22;2229;48.708;9.706;2023-04-01T09:58:47;9.70;95.60
4433;DHT22;2229;48.708;9.706;2023-04-01T10:02:27;9.70;95.50
4433;DHT22;2229;48.708;9.706;2023-04-01T10:05:44;9.70;95.40
4433;DHT22;2229;48.708;9.706;2023-04-01T10:08:44;9.70;95.40
4433;DHT22;2229;48.708;9.706;2023-04-01T10:20:59;9.70;95.60
4433;DHT22;2229;48.708;9.706;2023-04-01T10:26:52;9.60;96.40
4433;DHT22;2229;48.708;9.706;2023-04-01T10:30:13;9.60;96.90
4433;DHT22;2229;48.708;9.706;2023-04-01T10:33:19;9.60;97.20
4433;DHT22;2229;48.708;9.706;2023-04-01T10:43:02;9.60;98.10
4433;DHT22;2229;48.708;9.706;2023-04-01T10:49:20;9.60;99.00
4433;DHT22;2229;48.708;9.706;2023-04-01T10:55:37;9.70;99.30
4433;DHT22;2229;48.708;9.706;2023-04-01T10:58:57;9.70;99.40
4433;DHT22;2229;48.708;9.706;2023-04-01T11:08:54;9.60;99.90
4433;DHT22;2229;48.708;9.706;2023-04-01T11:12:09;9.60;99.90
4433;DHT22;2229;48.708;9.706;2023-04-01T11:28:27;9.80;99.90
4433;DHT22;2229;48.708;9.706;2023-04-01T11:31:26;9.80;99.90
4433;DHT22;2229;48.708;9.706;2023-04-01T11:34:04;9.80;99.90
4433;DHT22;2229;48.708;9.706;2023-04-01T11:36:51;9.80;99.90
4433;DHT22;2229;48.708;9.706;2023-04-01T11:39:32;9.80;99.90
4433;DHT22;2229;48.708;9.706;2023-04-01T11:42:12;9.80;99.90
4433;DHT22;2229;48.708;9.706;2023-04-01T11:45:24;9.80;99.90
4433;DHT22;2229;48.708;9.706;2023-04-01T11:48:27;9.80;99.90
4433;DHT22;2229;48.708;9.706;2023-04-01T11:51:21;9.80;99.90
4433;DHT22;2229;48.708;9.706;2023-04-01T11:53:58;9.90;99.90
4433;DHT22;2229;48.708;9.706;2023-04-01T11:56:46;9.90;99.90
4433;DHT22;2229;48.708;9.706;2023-04-01T11:59:56;9.90;99.90
4433;DHT22;2229;48.708;9.706;2023-04-01T12:02:48;9.90;99.90
4433;DHT22;2229;48.708;9.706;2023-04-01T12:05:27;9.90;99.90
4433;DHT22;2229;48.708;9.706;2023-04-01T12:08:10;9.90;99.90
4433;DHT22;2229;48.708;9.706;2023-04-01T12:10:46;9.90;99.90
4433;DHT22;2229;48.708;9.706;2023-04-01T12:13:30;9.90;99.90
4433;DHT22;2229;48.708;9.706;2023-04-01T12:16:15;9.90;99.90
4433;DHT22;2229;48.708;9.706;2023-04-01T12:18:50;9.90;99.90
4433;DHT22;2229;48.708;9.706;2023-04-01T12:21:26;9.90;99.90
4433;DHT22;2229;48.708;9.706;2023-04-01T12:27:27;10.00;99.90
4433;DHT22;2229;48.708;9.706;2023-04-01T12:30:18;10.10;99.90
4433;DHT22;2229;48.708;9.706;2023-04-01T12:32:56;10.10;99.90
4433;DHT22;2229;48.708;9.706;2023-04-01T12:35:34;10.20;99.90
4433;DHT22;2229;48.708;9.706;2023-04-01T12:38:17;10.10;99.90
4433;DHT22;2229;48.708;9.706;2023-04-01T12:40:54;10.10;99.90
4433;DHT22;2229;48.708;9.706;2023-04-01T12:46:32;10.10;99.90
4433;DHT22;2229;48.708;9.706;2023-04-01T12:49:26;10.00;99.90
4433;DHT22;2229;48.708;9.706;2023-04-01T12:52:07;10.00;99.90
4433;DHT22;2229;48.708;9.706;2023-04-01T12:55:05;9.90;99.90
4433;DHT22;2229;48.708;9.706;2023-04-01T13:00:55;9.80;99.90
4433;DHT22;2229;48.708;9.706;2023-04-01T13:03:58;9.90;99.90
4433;DHT22;2229;48.708;9.706;2023-04-01T13:06:40;9.80;99.90
4433;DHT22;2229;48.708;9.706;2023-04-01T13:09:21;9.80;99.90
4433;DHT22;2229;48.708;9.706;2023-04-01T13:12:07;9.80;99.90
4433;DHT22;2229;48.708;9.706;2023-04-01T13:15:01;9.80;99.90
4433;DHT22;2229;48.708;9.706;2023-04-01T13:17:41;9.90;99.90
4433;DHT22;2229;48.708;9.706;2023-04-01T13:20:21;10.00;99.90
4433;DHT22;2229;48.708;9.706;2023-04-01T13:23:04;10.00;99.90
4433;DHT22;2229;48.708;9.706;2023-04-01T13:25:37;10.10;99.90
4433;DHT22;2229;48.708;9.706;2023-04-01T13:28:12;10.20;99.90
4433;DHT22;2229;48.708;9.706;2023-04-01T13:30:47;10.20;99.90
4433;DHT22;2229;48.708;9.706;2023-04-01T13:33:24;10.30;99.90
4433;DHT22;2229;48.708;9.706;2023-04-01T13:36:05;10.30;99.90
4433;DHT22;2229;48.708;9.706;2023-04-01T13:38:53;10.40;99.90
4433;DHT22;2229;48.708;9.706;2023-04-01T13:41:35;10.30;99.50
4433;DHT22;2229;48.708;9.706;2023-04-01T13:44:11;10.30;99.30
4433;DHT22;2229;48.708;9.706;2023-04-01T13:47:13;10.20;98.40
4433;DHT22;2229;48.708;9.706;2023-04-01T13:50:01;10.20;97.80
4433;DHT22;2229;48.708;9.706;2023-04-01T13:56:06;10.20;97.90
4433;DHT22;2229;48.708;9.706;2023-04-01T13:58:55;10.20;98.00
4433;DHT22;2229;48.708;9.706;2023-04-01T14:01:32;10.20;98.00
4433;DHT22;2229;48.708;9.706;2023-04-01T14:04:27;10.30;97.80
4433;DHT22;2229;48.708;9.706;2023-04-01T14:07:16;10.30;97.30
4433;DHT22;2229;48.708;9.706;2023-04-01T14:09:59;10.30;97.60
4433;DHT22;2229;48.708;9.706;2023-04-01T14:12:36;10.30;97.40
4433;DHT22;2229;48.708;9.706;2023-04-01T14:18:07;10.50;97.20
4433;DHT22;2229;48.708;9.706;2023-04-01T14:20:40;10.50;96.90
4433;DHT22;2229;48.708;9.706;2023-04-01T14:23:29;10.60;97.10
4433;DHT22;2229;48.708;9.706;2023-04-01T14:26:26;10.70;96.80
4433;DHT22;2229;48.708;9.706;2023-04-01T14:29:10;10.70;96.20
4433;DHT22;2229;48.708;9.706;2023-04-01T14:31:54;10.60;96.00
4433;DHT22;2229;48.708;9.706;2023-04-01T14:34:34;10.60;96.20
4433;DHT22;2229;48.708;9.706;2023-04-01T14:37:23;10.70;96.40
4433;DHT22;2229;48.708;9.706;2023-04-01T14:40:18;10.60;96.10
4433;DHT22;2229;48.708;9.706;2023-04-01T14:43:19;10.70;96.20
4433;DHT22;2229;48.708;9.706;2023-04-01T14:46:12;10.70;95.90
4433;DHT22;2229;48.708;9.706;2023-04-01T14:48:51;10.70;96.00
4433;DHT22;2229;48.708;9.706;2023-04-01T14:51:28;10.80;95.70
4433;DHT22;2229;48.708;9.706;2023-04-01T14:54:02;10.80;95.10
4433;DHT22;2229;48.708;9.706;2023-04-01T14:56:37;10.80;95.10
4433;DHT22;2229;48.708;9.706;2023-04-01T14:59:09;10.80;95.20
4433;DHT22;2229;48.708;9.706;2023-04-01T15:01:46;10.80;95.00
4433;DHT22;2229;48.708;9.706;2023-04-01T15:07:46;10.80;94.80
4433;DHT22;2229;48.708;9.706;2023-04-01T15:10:33;10.70;94.70
4433;DHT22;2229;48.708;9.706;2023-04-01T15:13:12;10.70;94.80
4433;DHT22;2229;48.708;9.706;2023-04-01T15:15:55;10.70;95.30
4433;DHT22;2229;48.708;9.706;2023-04-01T15:18:37;10.70;95.90
4433;DHT22;2229;48.708;9.706;2023-04-01T15:21:21;10.60;96.00
4433;DHT22;2229;48.708;9.706;2023-04-01T15:23:57;10.60;96.30
4433;DHT22;2229;48.708;9.706;2023-04-01T15:27:00;10.60;96.40
4433;DHT22;2229;48.708;9.706;2023-04-01T15:29:40;10.60;96.60
4433;DHT22;2229;48.708;9.706;2023-04-01T15:32:17;10.60;96.80
4433;DHT22;2229;48.708;9.706;2023-04-01T15:34:53;10.50;96.80
4433;DHT22;2229;48.708;9.706;2023-04-01T15:37:33;10.40;96.60
4433;DHT22;2229;48.708;9.706;2023-04-01T15:40:14;10.30;96.40
4433;DHT22;2229;48.708;9.706;2023-04-01T15:42:52;10.30;96.40
4433;DHT22;2229;48.708;9.706;2023-04-01T15:45:38;10.20;96.50
4433;DHT22;2229;48.708;9.706;2023-04-01T15:48:18;10.30;97.80
4433;DHT22;2229;48.708;9.706;2023-04-01T15:50:57;10.40;96.70
4433;DHT22;2229;48.708;9.706;2023-04-01T15:53:37;10.40;95.90
4433;DHT22;2229;48.708;9.706;2023-04-01T15:56:24;10.30;96.00
4433;DHT22;2229;48.708;9.706;2023-04-01T15:59:01;10.30;96.00
4433;DHT22;2229;48.708;9.706;2023-04-01T16:01:39;10.20;96.00
4433;DHT22;2229;48.708;9.706;2023-04-01T16:04:33;10.20;96.10
4433;DHT22;2229;48.708;9.706;2023-04-01T16:10:16;10.20;96.40
4433;DHT22;2229;48.708;9.706;2023-04-01T16:12:58;10.10;96.60
4433;DHT22;2229;48.708;9.706;2023-04-01T16:15:37;10.20;96.80
4433;DHT22;2229;48.708;9.706;2023-04-01T16:21:36;10.10;96.80
4433;DHT22;2229;48.708;9.706;2023-04-01T16:24:14;10.10;96.80
4433;DHT22;2229;48.708;9.706;2023-04-01T16:26:50;10.10;96.70
4433;DHT22;2229;48.708;9.706;2023-04-01T16:29:26;10.10;96.70
4433;DHT22;2229;48.708;9.706;2023-04-01T16:32:00;10.10;96.90
4433;DHT22;2229;48.708;9.706;2023-04-01T16:34:41;10.10;96.90
4433;DHT22;2229;48.708;9.706;2023-04-01T16:37:19;10.40;97.00
4433;DHT22;2229;48.708;9.706;2023-04-01T16:39:53;10.10;96.80
4433;DHT22;2229;48.708;9.706;2023-04-01T16:42:35;10.10;96.70
4433;DHT22;2229;48.708;9.706;2023-04-01T16:45:30;10.10;96.90
4433;DHT22;2229;48.708;9.706;2023-04-01T16:48:06;10.10;97.00
4433;DHT22;2229;48.708;9.706;2023-04-01T16:50:48;10.10;97.00
4433;DHT22;2229;48.708;9.706;2023-04-01T16:53:25;10.10;96.90
4433;DHT22;2229;48.708;9.706;2023-04-01T16:55:56;10.10;96.90
4433;DHT22;2229;48.708;9.706;2023-04-01T16:58:35;10.10;96.90
4433;DHT22;2229;48.708;9.706;2023-04-01T17:01:06;10.10;96.90
4433;DHT22;2229;48.708;9.706;2023-04-01T17:03:39;10.10;96.80
4433;DHT22;2229;48.708;9.706;2023-04-01T17:06:19;10.10;96.90
4433;DHT22;2229;48.708;9.706;2023-04-01T17:09:07;10.10;96.90
4433;DHT22;2229;48.708;9.706;2023-04-01T17:11:45;10.10;97.00
4433;DHT22;2229;48.708;9.706;2023-04-01T17:14:22;10.10;96.90
4433;DHT22;2229;48.708;9.706;2023-04-01T17:16:59;10.10;97.00
4433;DHT22;2229;48.708;9.706;2023-04-01T17:19:40;10.20;97.00
4433;DHT22;2229;48.708;9.706;2023-04-01T17:22:25;10.10;96.90
4433;DHT22;2229;48.708;9.706;2023-04-01T17:25:05;10.10;97.00
4433;DHT22;2229;48.708;9.706;2023-04-01T17:27:49;10.10;97.00
4433;DHT22;2229;48.708;9.706;2023-04-01T17:30:26;10.10;97.00
4433;DHT22;2229;48.708;9.706;2023-04-01T17:33:08;10.10;97.00
4433;DHT22;2229;48.708;9.706;2023-04-01T17:35:41;10.10;97.00
4433;DHT22;2229;48.708;9.706;2023-04-01T17:38:18;10.10;97.00
4433;DHT22;2229;48.708;9.706;2023-04-01T17:40:59;10.10;97.00
4433;DHT22;2229;48.708;9.706;2023-04-01T17:43:39;10.10;97.00
4433;DHT22;2229;48.708;9.706;2023-04-01T17:46:27;10.10;96.80
4433;DHT22;2229;48.708;9.706;2023-04-01T17:49:05;10.10;96.70
4433;DHT22;2229;48.708;9.706;2023-04-01T17:51:41;10.10;96.60
4433;DHT22;2229;48.708;9.706;2023-04-01T17:54:22;10.10;96.60
4433;DHT22;2229;48.708;9.706;2023-04-01T17:57:01;10.10;96.40
4433;DHT22;2229;48.708;9.706;2023-04-01T17:59:36;10.00;96.40
4433;DHT22;2229;48.708;9.706;2023-04-01T18:02:16;10.00;96.20
4433;DHT22;2229;48.708;9.706;2023-04-01T18:05:20;10.00;96.10
4433;DHT22;2229;48.708;9.706;2023-04-01T18:08:03;10.00;96.20
4433;DHT22;2229;48.708;9.706;2023-04-01T18:10:43;10.00;96.20
4433;DHT22;2229;48.708;9.706;2023-04-01T18:16:37;10.00;96.00
4433;DHT22;2229;48.708;9.706;2023-04-01T18:19:13;10.10;96.10
4433;DHT22;2229;48.708;9.706;2023-04-01T18:21:46;10.00;96.10
4433;DHT22;2229;48.708;9.706;2023-04-01T18:24:23;10.10;96.20
4433;DHT22;2229;48.708;9.706;2023-04-01T18:27:02;10.10;96.50
4433;DHT22;2229;48.708;9.706;2023-04-01T18:29:37;10.10;96.40
4433;DHT22;2229;48.708;9.706;2023-04-01T18:32:27;10.10;96.50
4433;DHT22;2229;48.708;9.706;2023-04-01T18:35:02;10.00;96.50
4433;DHT22;2229;48.708;9.706;2023-04-01T18:37:39;10.10;96.80
4433;DHT22;2229;48.708;9.706;2023-04-01T18:40:17;10.10;96.90
4433;DHT22;2229;48.708;9.706;2023-04-01T18:42:55;10.00;97.00
4433;DHT22;2229;48.708;9.706;2023-04-01T18:45:28;10.00;97.20
4433;DHT22;2229;48.708;9.706;2023-04-01T18:48:16;10.00;97.30
4433;DHT22;2229;48.708;9.706;2023-04-01T18:50:50;10.00;97.50
4433;DHT22;2229;48.708;9.706;2023-04-01T18:53:23;9.90;98.20
4433;DHT22;2229;48.708;9.706;2023-04-01T18:55:56;9.90;98.30
4433;DHT22;2229;48.708;9.706;2023-04-01T18:58:35;9.90;98.60
4433;DHT22;2229;48.708;9.706;2023-04-01T19:01:19;9.80;98.70
4433;DHT22;2229;48.708;9.706;2023-04-01T19:04:03;9.80;99.00
4433;DHT22;2229;48.708;9.706;2023-04-01T19:06:35;9.70;99.30